Terminal Aerodrome Forecast
Issued by NWS Grand Forks, ND

Home | Current Version | Previous Version | Text Only | Print | Product List | Glossary On
Versions: 1 2 3 4 5 6 7 8 9 10 11 12
000
FTUS43 KFGF 281139
TAFGFK
TAF
KGFK 281139Z 2812/2912 VRB03KT P6SM -SHRA OVC070
     FM281500 16014KT P6SM BKN080
     FM282000 21015G24KT P6SM VCTS BKN050CB
     FM282300 28010KT P6SM BKN050
     FM290300 35012G18KT P6SM BKN100=

USA.gov is the U.S. government's official web portal to all federal, state and local government web resources and services.